Change the Weather History Date:

Monday, January 21, 2013

  Actual Average Record
Temperature  
Mean Temperature -9 °F -  
Max Temperature -4 °F 18 °F 37 °F (1997)
Min Temperature -14 °F 5 °F -18 °F (2012)
Degree Days  
Heating Degree Days 74    
Moisture  
Dew Point -18 °F    
Average Humidity 70    
Maximum Humidity 84    
Minimum Humidity 59    
Precipitation  
Precipitation 0.00 in - - ()
Sea Level Pressure  
Sea Level Pressure 30.05 in    
Wind  
Wind Speed 17 mph (WSW)    
Max Wind Speed 23 mph    
Max Gust Speed 29 mph    
Visibility 3 miles    
Events      
Averages and records for this station are not official NWS values.
T = Trace of Precipitation, MM = Missing Value Source: NWS Daily Summary

Daily Weather History Graph

Daily Weather History Graph

Search for Another Location

Airport or City:

Trip Planner

Search our weather history database for the weather conditions in past years. The results will help you decide how hot, cold, wet, or windy it might be!

Date:

Astronomy

Jan. 21, 2013 Rise Set
Actual Time 7:35 AM CST 4:48 PM CST
Civil Twilight 7:02 AM CST 5:22 PM CST
Nautical Twilight 6:25 AM CST 5:59 PM CST
Astronomical Twilight 5:49 AM CST 6:34 PM CST
Moon 12:27 PM CST (1/21) 3:04 AM CST (1/21)
Length of Visible Light 10h 19m
Length of Day
9h 13m
Waxing Gibbous, 75% of the Moon is Illuminated
Jan 21
Waxing Gibbous
Jan 26
Full
Feb 3
Last Quarter
Feb 10
New
Feb 17
First Quarter

Hourly Weather History & Observations

Time (CST) Temp. Windchill Dew Point Humidity Pressure Visibility Wind Dir Wind Speed Gust Speed Precip Events Conditions
12:15 AM -4.0 °F -24.5 °F -11.2 °F 71% 30.03 in 10.0 mi WSW 15.0 mph - N/A   Overcast
12:35 AM -4.0 °F -24.5 °F -11.2 °F 71% 30.03 in 6.0 mi WSW 15.0 mph - N/A   Overcast
12:55 AM -4.0 °F -23.0 °F -9.4 °F 78% 30.02 in 10.0 mi WSW 12.7 mph 19.6 mph N/A   Overcast
1:15 AM -4.0 °F -26.4 °F -9.4 °F 78% 30.02 in 2.5 mi West 18.4 mph - N/A   Overcast
1:35 AM -5.8 °F - -11.2 °F 77% - 1.5 mi North - - N/A   Overcast
1:55 AM -5.8 °F -29.4 °F -11.2 °F 77% 30.02 in 1.8 mi WSW 19.6 mph 24.2 mph N/A   Overcast
2:15 AM -5.8 °F -27.5 °F -11.2 °F 77% 30.02 in 1.5 mi WSW 16.1 mph 24.2 mph N/A   Overcast
2:35 AM -5.8 °F -27.5 °F -14.8 °F 65% 30.02 in 1.2 mi West 16.1 mph - N/A   Overcast
2:55 AM -7.6 °F -28.3 °F -14.8 °F 71% 30.02 in 2.0 mi WSW 13.8 mph - N/A   Overcast
3:15 AM -7.6 °F -29.8 °F -14.8 °F 71% 30.02 in 8.0 mi WSW 16.1 mph - N/A   Overcast
3:35 AM -7.6 °F -30.5 °F -16.6 °F 65% 30.01 in 10.0 mi WSW 17.3 mph 21.9 mph N/A   Overcast
3:55 AM -9.4 °F -32.1 °F -14.8 °F 77% 30.02 in 10.0 mi WSW 16.1 mph - N/A   Overcast
4:15 AM -9.4 °F -31.4 °F -16.6 °F 71% 30.01 in 8.0 mi WSW 15.0 mph - N/A   Overcast
4:35 AM -9.4 °F -32.1 °F -16.6 °F 71% 30.02 in 10.0 mi WSW 16.1 mph - N/A   Mostly Cloudy
4:55 AM -9.4 °F -34.1 °F -16.6 °F 71% 30.02 in 10.0 mi WSW 19.6 mph - N/A   Mostly Cloudy
5:15 AM -9.4 °F -31.4 °F -16.6 °F 71% 30.02 in 10.0 mi WSW 15.0 mph 24.2 mph N/A   Scattered Clouds
5:35 AM -11.2 °F -33.7 °F -18.4 °F 70% 30.02 in 9.0 mi WSW 15.0 mph 20.7 mph N/A   Mostly Cloudy
5:55 AM -11.2 °F -33.7 °F -18.4 °F 70% 30.03 in 7.0 mi WSW 15.0 mph - N/A   Overcast
6:15 AM -11.2 °F -35.8 °F -18.4 °F 70% 30.02 in 1.8 mi WSW 18.4 mph - N/A   Overcast
6:35 AM -11.2 °F -36.4 °F -20.2 °F 64% 30.02 in 1.5 mi WSW 19.6 mph 25.3 mph N/A   Overcast
6:55 AM -11.2 °F -36.4 °F -20.2 °F 64% 30.02 in 1.2 mi West 19.6 mph 24.2 mph N/A   Overcast
7:15 AM -13.0 °F -38.8 °F -20.2 °F 70% 30.03 in 1.0 mi West 19.6 mph 24.2 mph N/A   Overcast
7:35 AM -13.0 °F -37.5 °F -18.4 °F 77% 30.03 in 0.5 mi West 17.3 mph 21.9 mph N/A   Overcast
7:55 AM -13.0 °F -36.8 °F -20.2 °F 70% 30.04 in 0.5 mi WSW 16.1 mph - N/A   Overcast
8:15 AM -13.0 °F -38.2 °F -20.2 °F 70% 30.04 in 0.2 mi WSW 18.4 mph 21.9 mph N/A   Overcast
8:35 AM -13.0 °F -37.5 °F -20.2 °F 70% 30.05 in 0.2 mi WSW 17.3 mph - N/A   Overcast
8:55 AM -14.8 °F -39.1 °F -20.2 °F 77% 30.05 in 0.2 mi WSW 16.1 mph 20.7 mph N/A   Overcast
9:15 AM -13.0 °F -36.0 °F -20.2 °F 70% 30.06 in 0.5 mi West 15.0 mph - N/A   Overcast
9:35 AM -13.0 °F -38.2 °F -16.6 °F 84% 30.06 in 0.2 mi West 18.4 mph 21.9 mph N/A   Overcast
9:55 AM -13.0 °F -40.6 °F -18.4 °F 77% 30.06 in 0.2 mi West 23.0 mph 27.6 mph N/A   Overcast
10:15 AM -13.0 °F -40.6 °F -22.0 °F 64% 30.06 in 0.2 mi West 23.0 mph 28.8 mph N/A   Overcast
10:35 AM -13.0 °F -38.2 °F -16.6 °F 84% 30.07 in 0.2 mi West 18.4 mph 26.5 mph N/A   Overcast
10:55 AM -11.2 °F -37.0 °F -20.2 °F 64% 30.07 in 0.2 mi WSW 20.7 mph 26.5 mph N/A   Overcast
11:15 AM -11.2 °F -36.4 °F -20.2 °F 64% 30.07 in 0.2 mi West 19.6 mph 27.6 mph N/A   Overcast
11:35 AM -11.2 °F -36.4 °F -18.4 °F 70% 30.07 in 0.2 mi West 19.6 mph 27.6 mph N/A   Overcast
11:55 AM -11.2 °F -37.6 °F -18.4 °F 70% 30.06 in 0.2 mi West 21.9 mph 26.5 mph N/A   Overcast
12:15 PM -11.2 °F -36.4 °F -18.4 °F 70% 30.06 in 0.2 mi WSW 19.6 mph 26.5 mph N/A   Overcast
12:35 PM -11.2 °F -38.2 °F -20.2 °F 64% 30.06 in 0.5 mi West 23.0 mph 28.8 mph N/A   Overcast
12:55 PM -11.2 °F -34.4 °F -20.2 °F 64% 30.06 in 0.5 mi West 16.1 mph 28.8 mph N/A   Overcast
1:15 PM -11.2 °F -35.8 °F -20.2 °F 64% 30.06 in 1.0 mi West 18.4 mph 25.3 mph N/A   Overcast
1:35 PM -11.2 °F -36.4 °F -20.2 °F 64% 30.06 in 0.8 mi West 19.6 mph - N/A   Overcast
1:55 PM -11.2 °F -37.6 °F -20.2 °F 64% 30.05 in 1.5 mi West 21.9 mph 25.3 mph N/A   Overcast
2:15 PM -11.2 °F -36.4 °F -20.2 °F 64% 30.05 in 1.2 mi West 19.6 mph - N/A   Overcast
2:35 PM -11.2 °F -37.0 °F -20.2 °F 64% 30.05 in 1.5 mi West 20.7 mph - N/A   Overcast
2:55 PM -11.2 °F -36.4 °F -20.2 °F 64% 30.06 in 1.8 mi WSW 19.6 mph 24.2 mph N/A   Overcast
3:15 PM -11.2 °F -34.4 °F -20.2 °F 64% 30.06 in 2.5 mi West 16.1 mph - N/A   Overcast
3:35 PM -11.2 °F -32.1 °F -18.4 °F 70% 30.07 in 2.0 mi WSW 12.7 mph 20.7 mph N/A   Overcast
3:55 PM -11.2 °F -35.8 °F -18.4 °F 70% 30.06 in 3.0 mi WSW 18.4 mph 24.2 mph N/A   Overcast
4:15 PM -11.2 °F -35.2 °F -18.4 °F 70% 30.06 in 4.0 mi WSW 17.3 mph 23.0 mph N/A   Overcast
4:35 PM -11.2 °F -34.4 °F -18.4 °F 70% 30.07 in 6.0 mi WSW 16.1 mph 20.7 mph N/A   Overcast
4:55 PM -11.2 °F -33.7 °F -22.0 °F 59% 30.07 in 6.0 mi WSW 15.0 mph 21.9 mph N/A   Overcast
5:15 PM -11.2 °F -33.7 °F -20.2 °F 64% 30.07 in 5.0 mi West 15.0 mph - N/A   Overcast
5:35 PM -11.2 °F -33.7 °F -20.2 °F 64% 30.07 in 9.0 mi West 15.0 mph - N/A   Overcast
5:55 PM -11.2 °F -34.4 °F -20.2 °F 64% 30.07 in 7.0 mi West 16.1 mph 20.7 mph N/A   Overcast
6:15 PM -11.2 °F -35.8 °F -18.4 °F 70% 30.07 in 7.0 mi West 18.4 mph 23.0 mph N/A   Overcast
6:35 PM -11.2 °F -35.2 °F -20.2 °F 64% 30.07 in 5.0 mi WSW 17.3 mph 23.0 mph N/A   Overcast
6:55 PM -11.2 °F -35.2 °F -20.2 °F 64% 30.07 in 3.0 mi WSW 17.3 mph - N/A   Overcast
7:15 PM -11.2 °F -33.7 °F -16.6 °F 77% 30.07 in 1.8 mi West 15.0 mph 25.3 mph N/A   Overcast
7:35 PM -11.2 °F -35.8 °F -16.6 °F 77% 30.07 in 1.0 mi WSW 18.4 mph 24.2 mph N/A   Overcast
7:55 PM -9.4 °F -32.1 °F -16.6 °F 71% 30.07 in 0.8 mi WSW 16.1 mph 21.9 mph N/A   Overcast
8:15 PM -9.4 °F -31.4 °F -16.6 °F 71% 30.08 in 0.8 mi WSW 15.0 mph - N/A   Overcast
8:35 PM -9.4 °F -32.8 °F -16.6 °F 71% 30.08 in 0.8 mi West 17.3 mph - N/A   Overcast
8:55 PM -9.4 °F -30.6 °F -16.6 °F 71% 30.07 in 1.0 mi WSW 13.8 mph - N/A   Overcast
9:15 PM -9.4 °F -31.4 °F -16.6 °F 71% 30.08 in 0.8 mi WSW 15.0 mph - N/A   Overcast
9:35 PM -9.4 °F -29.8 °F -16.6 °F 71% 30.08 in 1.0 mi WSW 12.7 mph - N/A   Overcast
9:55 PM -9.4 °F -30.6 °F -16.6 °F 71% 30.08 in 1.0 mi WSW 13.8 mph - N/A   Overcast
10:15 PM -11.2 °F -35.2 °F -14.8 °F 84% 30.08 in 0.8 mi West 17.3 mph - N/A   Overcast
10:35 PM -9.4 °F -32.1 °F -14.8 °F 77% 30.08 in 1.0 mi WSW 16.1 mph 20.7 mph N/A   Overcast
10:55 PM -9.4 °F -31.4 °F -18.4 °F 65% 30.09 in 1.0 mi West 15.0 mph - N/A   Overcast
11:15 PM -9.4 °F -30.6 °F -14.8 °F 77% 30.09 in 1.2 mi WSW 13.8 mph - N/A   Overcast
11:35 PM -9.4 °F -32.1 °F -18.4 °F 65% 30.09 in 1.2 mi WSW 16.1 mph - N/A   Overcast
11:55 PM -9.4 °F -32.1 °F -16.6 °F 71% 30.08 in 1.2 mi WSW 16.1 mph - N/A   Overcast